sensor_id;sensor_type;location;lat;lon;timestamp;P1;durP1;ratioP1;P2;durP2;ratioP2
44430;SDS011;30135;47.866;-4.222;2022-08-19T00:00:53;9.88;;;2.20;;
44430;SDS011;30135;47.866;-4.222;2022-08-19T00:03:20;10.07;;;2.53;;
44430;SDS011;30135;47.866;-4.222;2022-08-19T00:05:47;11.65;;;2.25;;
44430;SDS011;30135;47.866;-4.222;2022-08-19T00:08:20;9.48;;;2.67;;
44430;SDS011;30135;47.866;-4.222;2022-08-19T00:10:51;7.38;;;3.15;;
44430;SDS011;30135;47.866;-4.222;2022-08-19T00:13:17;11.60;;;3.20;;
44430;SDS011;30135;47.866;-4.222;2022-08-19T00:15:43;16.08;;;3.60;;
44430;SDS011;30135;47.866;-4.222;2022-08-19T00:18:10;12.80;;;3.88;;
44430;SDS011;30135;47.866;-4.222;2022-08-19T00:20:36;7.25;;;3.17;;
44430;SDS011;30135;47.866;-4.222;2022-08-19T00:23:06;15.93;;;3.65;;
44430;SDS011;30135;47.866;-4.222;2022-08-19T00:25:34;13.40;;;4.00;;
44430;SDS011;30135;47.866;-4.222;2022-08-19T00:28:02;13.07;;;3.13;;
44430;SDS011;30135;47.866;-4.222;2022-08-19T00:30:32;16.75;;;3.05;;
44430;SDS011;30135;47.866;-4.222;2022-08-19T00:32:58;7.82;;;2.90;;
44430;SDS011;30135;47.866;-4.222;2022-08-19T00:35:24;15.13;;;4.80;;
44430;SDS011;30135;47.866;-4.222;2022-08-19T00:38:01;12.48;;;3.17;;
44430;SDS011;30135;47.866;-4.222;2022-08-19T00:40:27;15.30;;;4.80;;
44430;SDS011;30135;47.866;-4.222;2022-08-19T00:42:55;11.90;;;2.80;;
44430;SDS011;30135;47.866;-4.222;2022-08-19T00:45:23;9.85;;;2.75;;
44430;SDS011;30135;47.866;-4.222;2022-08-19T00:47:57;14.63;;;3.75;;
44430;SDS011;30135;47.866;-4.222;2022-08-19T00:50:24;13.60;;;3.22;;
44430;SDS011;30135;47.866;-4.222;2022-08-19T00:52:50;8.18;;;3.05;;
44430;SDS011;30135;47.866;-4.222;2022-08-19T00:55:19;16.20;;;3.25;;
44430;SDS011;30135;47.866;-4.222;2022-08-19T00:58:10;9.52;;;2.67;;
44430;SDS011;30135;47.866;-4.222;2022-08-19T01:00:46;13.65;;;2.70;;
44430;SDS011;30135;47.866;-4.222;2022-08-19T01:03:17;16.05;;;2.65;;
44430;SDS011;30135;47.866;-4.222;2022-08-19T01:05:48;9.93;;;2.33;;
44430;SDS011;30135;47.866;-4.222;2022-08-19T01:08:18;12.48;;;2.63;;
44430;SDS011;30135;47.866;-4.222;2022-08-19T01:10:49;8.38;;;2.33;;
44430;SDS011;30135;47.866;-4.222;2022-08-19T01:13:20;10.60;;;3.40;;
44430;SDS011;30135;47.866;-4.222;2022-08-19T01:15:53;13.90;;;3.58;;
44430;SDS011;30135;47.866;-4.222;2022-08-19T01:18:25;13.00;;;3.67;;
44430;SDS011;30135;47.866;-4.222;2022-08-19T01:20:54;15.45;;;3.40;;
44430;SDS011;30135;47.866;-4.222;2022-08-19T01:26:19;16.10;;;3.92;;
44430;SDS011;30135;47.866;-4.222;2022-08-19T01:28:48;9.20;;;2.67;;
44430;SDS011;30135;47.866;-4.222;2022-08-19T01:31:21;16.63;;;3.33;;
44430;SDS011;30135;47.866;-4.222;2022-08-19T01:34:04;12.05;;;3.33;;
44430;SDS011;30135;47.866;-4.222;2022-08-19T01:36:42;10.60;;;3.17;;
44430;SDS011;30135;47.866;-4.222;2022-08-19T01:39:18;13.55;;;3.08;;
44430;SDS011;30135;47.866;-4.222;2022-08-19T01:41:49;17.40;;;2.63;;
44430;SDS011;30135;47.866;-4.222;2022-08-19T01:44:20;15.88;;;2.42;;
44430;SDS011;30135;47.866;-4.222;2022-08-19T01:46:49;14.07;;;3.20;;
44430;SDS011;30135;47.866;-4.222;2022-08-19T01:49:20;16.13;;;2.97;;
44430;SDS011;30135;47.866;-4.222;2022-08-19T01:51:49;17.08;;;4.03;;
44430;SDS011;30135;47.866;-4.222;2022-08-19T01:54:22;10.73;;;3.10;;
44430;SDS011;30135;47.866;-4.222;2022-08-19T01:56:51;11.05;;;2.88;;
44430;SDS011;30135;47.866;-4.222;2022-08-19T01:59:21;14.55;;;3.08;;
44430;SDS011;30135;47.866;-4.222;2022-08-19T02:01:49;24.73;;;3.03;;
44430;SDS011;30135;47.866;-4.222;2022-08-19T02:04:22;14.32;;;3.42;;
44430;SDS011;30135;47.866;-4.222;2022-08-19T02:06:50;15.82;;;3.25;;
44430;SDS011;30135;47.866;-4.222;2022-08-19T02:09:19;7.90;;;3.67;;
44430;SDS011;30135;47.866;-4.222;2022-08-19T02:11:46;17.80;;;2.78;;
44430;SDS011;30135;47.866;-4.222;2022-08-19T02:14:14;15.80;;;2.88;;
44430;SDS011;30135;47.866;-4.222;2022-08-19T02:16:40;17.27;;;3.97;;
44430;SDS011;30135;47.866;-4.222;2022-08-19T02:19:08;13.48;;;2.75;;
44430;SDS011;30135;47.866;-4.222;2022-08-19T02:21:35;15.82;;;4.35;;
44430;SDS011;30135;47.866;-4.222;2022-08-19T02:24:03;14.10;;;3.15;;
44430;SDS011;30135;47.866;-4.222;2022-08-19T02:26:29;16.77;;;3.53;;
44430;SDS011;30135;47.866;-4.222;2022-08-19T02:28:57;20.05;;;3.08;;
44430;SDS011;30135;47.866;-4.222;2022-08-19T02:31:25;19.00;;;3.78;;
44430;SDS011;30135;47.866;-4.222;2022-08-19T02:33:54;12.90;;;3.78;;
44430;SDS011;30135;47.866;-4.222;2022-08-19T02:36:21;9.82;;;4.05;;
44430;SDS011;30135;47.866;-4.222;2022-08-19T02:38:56;16.95;;;3.25;;
44430;SDS011;30135;47.866;-4.222;2022-08-19T02:41:24;15.75;;;4.05;;
44430;SDS011;30135;47.866;-4.222;2022-08-19T02:43:56;12.85;;;3.75;;
44430;SDS011;30135;47.866;-4.222;2022-08-19T02:46:25;16.45;;;3.88;;
44430;SDS011;30135;47.866;-4.222;2022-08-19T02:48:57;18.77;;;3.20;;
44430;SDS011;30135;47.866;-4.222;2022-08-19T02:51:29;10.15;;;3.20;;
44430;SDS011;30135;47.866;-4.222;2022-08-19T02:54:04;17.13;;;3.63;;
44430;SDS011;30135;47.866;-4.222;2022-08-19T02:56:35;13.35;;;3.72;;
44430;SDS011;30135;47.866;-4.222;2022-08-19T02:59:07;13.15;;;3.90;;
44430;SDS011;30135;47.866;-4.222;2022-08-19T03:01:36;10.13;;;3.35;;
44430;SDS011;30135;47.866;-4.222;2022-08-19T03:04:07;9.82;;;2.63;;
44430;SDS011;30135;47.866;-4.222;2022-08-19T03:06:45;14.63;;;3.63;;
44430;SDS011;30135;47.866;-4.222;2022-08-19T03:09:19;26.95;;;4.50;;
44430;SDS011;30135;47.866;-4.222;2022-08-19T03:11:46;19.55;;;3.42;;
44430;SDS011;30135;47.866;-4.222;2022-08-19T03:14:12;14.82;;;2.63;;
44430;SDS011;30135;47.866;-4.222;2022-08-19T03:16:45;18.92;;;3.90;;
44430;SDS011;30135;47.866;-4.222;2022-08-19T03:19:18;16.58;;;3.55;;
44430;SDS011;30135;47.866;-4.222;2022-08-19T03:21:49;17.65;;;3.80;;
44430;SDS011;30135;47.866;-4.222;2022-08-19T03:24:16;15.63;;;3.47;;
44430;SDS011;30135;47.866;-4.222;2022-08-19T03:26:45;16.02;;;3.08;;
44430;SDS011;30135;47.866;-4.222;2022-08-19T03:29:18;17.98;;;2.97;;
44430;SDS011;30135;47.866;-4.222;2022-08-19T03:34:16;11.23;;;2.05;;
44430;SDS011;30135;47.866;-4.222;2022-08-19T03:36:58;14.18;;;4.45;;
44430;SDS011;30135;47.866;-4.222;2022-08-19T03:39:30;24.55;;;4.30;;
44430;SDS011;30135;47.866;-4.222;2022-08-19T03:41:56;15.32;;;2.70;;
44430;SDS011;30135;47.866;-4.222;2022-08-19T03:44:28;21.27;;;3.20;;
44430;SDS011;30135;47.866;-4.222;2022-08-19T03:46:58;11.65;;;2.08;;
44430;SDS011;30135;47.866;-4.222;2022-08-19T03:49:27;11.18;;;2.75;;
44430;SDS011;30135;47.866;-4.222;2022-08-19T03:51:56;11.50;;;1.67;;
44430;SDS011;30135;47.866;-4.222;2022-08-19T03:56:53;19.63;;;2.70;;
44430;SDS011;30135;47.866;-4.222;2022-08-19T03:59:23;13.10;;;2.25;;
44430;SDS011;30135;47.866;-4.222;2022-08-19T04:02:01;16.25;;;1.98;;
44430;SDS011;30135;47.866;-4.222;2022-08-19T04:04:34;14.48;;;2.28;;
44430;SDS011;30135;47.866;-4.222;2022-08-19T04:07:03;18.00;;;2.50;;
44430;SDS011;30135;47.866;-4.222;2022-08-19T04:09:33;15.15;;;3.30;;
44430;SDS011;30135;47.866;-4.222;2022-08-19T04:12:02;10.20;;;1.88;;
44430;SDS011;30135;47.866;-4.222;2022-08-19T04:14:30;16.58;;;1.88;;
44430;SDS011;30135;47.866;-4.222;2022-08-19T04:16:57;17.38;;;2.33;;
44430;SDS011;30135;47.866;-4.222;2022-08-19T04:19:24;20.13;;;3.00;;
44430;SDS011;30135;47.866;-4.222;2022-08-19T04:21:53;21.58;;;2.95;;
44430;SDS011;30135;47.866;-4.222;2022-08-19T04:24:22;15.07;;;1.83;;
44430;SDS011;30135;47.866;-4.222;2022-08-19T04:26:50;13.35;;;2.10;;
44430;SDS011;30135;47.866;-4.222;2022-08-19T04:31:50;23.58;;;2.85;;
44430;SDS011;30135;47.866;-4.222;2022-08-19T04:34:21;21.55;;;3.20;;
44430;SDS011;30135;47.866;-4.222;2022-08-19T04:36:51;17.70;;;2.58;;
44430;SDS011;30135;47.866;-4.222;2022-08-19T04:39:22;11.85;;;2.67;;
44430;SDS011;30135;47.866;-4.222;2022-08-19T04:42:13;17.70;;;2.60;;
44430;SDS011;30135;47.866;-4.222;2022-08-19T04:44:59;15.98;;;1.92;;
44430;SDS011;30135;47.866;-4.222;2022-08-19T04:47:27;19.48;;;2.50;;
44430;SDS011;30135;47.866;-4.222;2022-08-19T04:49:56;17.17;;;3.08;;
44430;SDS011;30135;47.866;-4.222;2022-08-19T04:52:23;13.35;;;1.60;;
44430;SDS011;30135;47.866;-4.222;2022-08-19T04:54:49;25.55;;;3.00;;
44430;SDS011;30135;47.866;-4.222;2022-08-19T04:57:16;12.43;;;1.65;;
44430;SDS011;30135;47.866;-4.222;2022-08-19T04:59:45;7.23;;;1.13;;
44430;SDS011;30135;47.866;-4.222;2022-08-19T05:02:11;18.58;;;3.30;;
44430;SDS011;30135;47.866;-4.222;2022-08-19T05:04:37;12.95;;;2.78;;
44430;SDS011;30135;47.866;-4.222;2022-08-19T05:07:05;10.35;;;2.35;;
44430;SDS011;30135;47.866;-4.222;2022-08-19T05:09:33;11.38;;;1.90;;
44430;SDS011;30135;47.866;-4.222;2022-08-19T05:12:00;11.90;;;1.50;;
44430;SDS011;30135;47.866;-4.222;2022-08-19T05:14:26;18.75;;;2.70;;
44430;SDS011;30135;47.866;-4.222;2022-08-19T05:16:54;12.82;;;3.90;;
44430;SDS011;30135;47.866;-4.222;2022-08-19T05:19:20;16.35;;;2.17;;
44430;SDS011;30135;47.866;-4.222;2022-08-19T05:22:05;21.83;;;1.90;;
44430;SDS011;30135;47.866;-4.222;2022-08-19T05:24:51;12.27;;;3.20;;
44430;SDS011;30135;47.866;-4.222;2022-08-19T05:27:19;13.00;;;2.28;;
44430;SDS011;30135;47.866;-4.222;2022-08-19T05:29:46;14.27;;;1.95;;
44430;SDS011;30135;47.866;-4.222;2022-08-19T05:32:13;14.13;;;1.48;;
44430;SDS011;30135;47.866;-4.222;2022-08-19T05:34:40;13.18;;;1.75;;
44430;SDS011;30135;47.866;-4.222;2022-08-19T05:37:07;11.43;;;1.88;;
44430;SDS011;30135;47.866;-4.222;2022-08-19T05:39:34;8.65;;;1.52;;
44430;SDS011;30135;47.866;-4.222;2022-08-19T05:42:11;11.63;;;2.07;;
44430;SDS011;30135;47.866;-4.222;2022-08-19T05:44:39;8.85;;;1.52;;
44430;SDS011;30135;47.866;-4.222;2022-08-19T05:47:09;12.57;;;1.83;;
44430;SDS011;30135;47.866;-4.222;2022-08-19T05:49:37;23.05;;;1.67;;
44430;SDS011;30135;47.866;-4.222;2022-08-19T05:52:05;6.45;;;1.10;;
44430;SDS011;30135;47.866;-4.222;2022-08-19T05:54:39;7.03;;;1.40;;
44430;SDS011;30135;47.866;-4.222;2022-08-19T05:57:08;11.82;;;1.30;;
44430;SDS011;30135;47.866;-4.222;2022-08-19T05:59:34;10.48;;;1.92;;
44430;SDS011;30135;47.866;-4.222;2022-08-19T06:02:02;7.18;;;1.92;;
44430;SDS011;30135;47.866;-4.222;2022-08-19T06:04:31;14.63;;;3.50;;
44430;SDS011;30135;47.866;-4.222;2022-08-19T06:07:00;8.32;;;1.60;;
44430;SDS011;30135;47.866;-4.222;2022-08-19T06:09:27;4.18;;;1.33;;
44430;SDS011;30135;47.866;-4.222;2022-08-19T06:11:56;12.57;;;1.55;;
44430;SDS011;30135;47.866;-4.222;2022-08-19T06:14:26;8.27;;;1.83;;
44430;SDS011;30135;47.866;-4.222;2022-08-19T06:16:55;15.05;;;1.23;;
44430;SDS011;30135;47.866;-4.222;2022-08-19T06:19:29;12.02;;;2.30;;
44430;SDS011;30135;47.866;-4.222;2022-08-19T06:21:56;6.20;;;0.93;;
44430;SDS011;30135;47.866;-4.222;2022-08-19T06:24:27;8.10;;;1.98;;
44430;SDS011;30135;47.866;-4.222;2022-08-19T06:26:56;12.43;;;1.67;;
44430;SDS011;30135;47.866;-4.222;2022-08-19T06:29:25;15.70;;;1.45;;
44430;SDS011;30135;47.866;-4.222;2022-08-19T06:31:53;18.50;;;3.10;;
44430;SDS011;30135;47.866;-4.222;2022-08-19T06:34:29;16.92;;;1.55;;
44430;SDS011;30135;47.866;-4.222;2022-08-19T06:37:00;18.65;;;2.42;;
44430;SDS011;30135;47.866;-4.222;2022-08-19T06:39:33;12.90;;;1.23;;
44430;SDS011;30135;47.866;-4.222;2022-08-19T06:42:04;20.58;;;1.35;;
44430;SDS011;30135;47.866;-4.222;2022-08-19T06:44:39;13.20;;;1.63;;
44430;SDS011;30135;47.866;-4.222;2022-08-19T06:47:10;15.25;;;2.30;;
44430;SDS011;30135;47.866;-4.222;2022-08-19T06:49:47;14.52;;;1.95;;
44430;SDS011;30135;47.866;-4.222;2022-08-19T06:52:13;10.85;;;1.42;;
44430;SDS011;30135;47.866;-4.222;2022-08-19T06:54:41;9.73;;;2.40;;
44430;SDS011;30135;47.866;-4.222;2022-08-19T06:57:08;17.55;;;2.03;;
44430;SDS011;30135;47.866;-4.222;2022-08-19T06:59:40;9.13;;;1.40;;
44430;SDS011;30135;47.866;-4.222;2022-08-19T07:02:07;10.45;;;1.88;;
44430;SDS011;30135;47.866;-4.222;2022-08-19T07:04:35;14.93;;;2.25;;
44430;SDS011;30135;47.866;-4.222;2022-08-19T07:07:05;14.07;;;1.88;;
44430;SDS011;30135;47.866;-4.222;2022-08-19T07:09:38;10.77;;;1.10;;
44430;SDS011;30135;47.866;-4.222;2022-08-19T07:12:09;6.20;;;1.92;;
44430;SDS011;30135;47.866;-4.222;2022-08-19T07:14:40;14.25;;;1.35;;
44430;SDS011;30135;47.866;-4.222;2022-08-19T07:17:08;14.05;;;1.80;;
44430;SDS011;30135;47.866;-4.222;2022-08-19T07:19:36;15.63;;;2.28;;
44430;SDS011;30135;47.866;-4.222;2022-08-19T07:22:04;11.98;;;2.13;;
44430;SDS011;30135;47.866;-4.222;2022-08-19T07:27:01;9.65;;;1.08;;
44430;SDS011;30135;47.866;-4.222;2022-08-19T07:29:31;8.13;;;1.92;;
44430;SDS011;30135;47.866;-4.222;2022-08-19T07:31:59;10.90;;;1.23;;
44430;SDS011;30135;47.866;-4.222;2022-08-19T07:34:32;25.23;;;1.15;;
44430;SDS011;30135;47.866;-4.222;2022-08-19T07:37:06;4.30;;;1.25;;
44430;SDS011;30135;47.866;-4.222;2022-08-19T07:39:34;8.25;;;1.50;;
44430;SDS011;30135;47.866;-4.222;2022-08-19T07:42:04;12.48;;;2.05;;
44430;SDS011;30135;47.866;-4.222;2022-08-19T07:44:34;14.38;;;1.83;;
44430;SDS011;30135;47.866;-4.222;2022-08-19T07:47:08;7.32;;;1.70;;
44430;SDS011;30135;47.866;-4.222;2022-08-19T07:49:39;17.65;;;1.95;;
44430;SDS011;30135;47.866;-4.222;2022-08-19T07:52:10;5.57;;;1.10;;
44430;SDS011;30135;47.866;-4.222;2022-08-19T07:54:36;14.57;;;1.42;;
44430;SDS011;30135;47.866;-4.222;2022-08-19T07:57:06;11.85;;;1.45;;
44430;SDS011;30135;47.866;-4.222;2022-08-19T07:59:33;22.52;;;1.15;;
44430;SDS011;30135;47.866;-4.222;2022-08-19T08:02:04;12.10;;;2.17;;
44430;SDS011;30135;47.866;-4.222;2022-08-19T08:04:31;8.15;;;1.52;;
44430;SDS011;30135;47.866;-4.222;2022-08-19T08:07:18;5.28;;;1.30;;
44430;SDS011;30135;47.866;-4.222;2022-08-19T08:10:06;8.70;;;1.10;;
44430;SDS011;30135;47.866;-4.222;2022-08-19T08:12:35;14.05;;;1.60;;
44430;SDS011;30135;47.866;-4.222;2022-08-19T08:15:08;11.40;;;2.47;;
44430;SDS011;30135;47.866;-4.222;2022-08-19T08:17:44;12.23;;;1.10;;
44430;SDS011;30135;47.866;-4.222;2022-08-19T08:20:12;11.70;;;2.03;;
44430;SDS011;30135;47.866;-4.222;2022-08-19T08:22:43;14.52;;;0.98;;
44430;SDS011;30135;47.866;-4.222;2022-08-19T08:25:30;10.80;;;1.20;;
44430;SDS011;30135;47.866;-4.222;2022-08-19T08:28:01;13.65;;;1.42;;
44430;SDS011;30135;47.866;-4.222;2022-08-19T08:30:31;6.72;;;0.90;;
44430;SDS011;30135;47.866;-4.222;2022-08-19T08:33:07;8.18;;;2.13;;
44430;SDS011;30135;47.866;-4.222;2022-08-19T08:35:35;19.83;;;1.35;;
44430;SDS011;30135;47.866;-4.222;2022-08-19T08:38:02;6.80;;;1.25;;
44430;SDS011;30135;47.866;-4.222;2022-08-19T08:40:44;6.90;;;1.30;;
44430;SDS011;30135;47.866;-4.222;2022-08-19T08:43:29;2.08;;;0.95;;
44430;SDS011;30135;47.866;-4.222;2022-08-19T08:46:05;7.70;;;1.08;;
44430;SDS011;30135;47.866;-4.222;2022-08-19T08:48:44;5.75;;;0.98;;
44430;SDS011;30135;47.866;-4.222;2022-08-19T08:51:52;35.78;;;1.50;;
44430;SDS011;30135;47.866;-4.222;2022-08-19T08:54:43;14.15;;;2.00;;
44430;SDS011;30135;47.866;-4.222;2022-08-19T08:57:13;8.75;;;1.73;;
44430;SDS011;30135;47.866;-4.222;2022-08-19T08:59:47;7.18;;;1.20;;
44430;SDS011;30135;47.866;-4.222;2022-08-19T09:02:19;6.70;;;0.85;;
44430;SDS011;30135;47.866;-4.222;2022-08-19T09:04:45;10.75;;;1.58;;
44430;SDS011;30135;47.866;-4.222;2022-08-19T09:10:29;6.32;;;1.75;;
44430;SDS011;30135;47.866;-4.222;2022-08-19T09:16:10;7.40;;;1.00;;
44430;SDS011;30135;47.866;-4.222;2022-08-19T09:18:47;13.75;;;1.48;;
44430;SDS011;30135;47.866;-4.222;2022-08-19T09:21:22;11.93;;;1.42;;
44430;SDS011;30135;47.866;-4.222;2022-08-19T09:23:50;10.48;;;2.35;;
44430;SDS011;30135;47.866;-4.222;2022-08-19T09:26:18;5.97;;;1.25;;
44430;SDS011;30135;47.866;-4.222;2022-08-19T09:28:48;7.20;;;1.40;;
44430;SDS011;30135;47.866;-4.222;2022-08-19T09:31:19;9.45;;;1.15;;
44430;SDS011;30135;47.866;-4.222;2022-08-19T09:33:50;9.38;;;1.23;;
44430;SDS011;30135;47.866;-4.222;2022-08-19T09:36:26;11.05;;;1.30;;
44430;SDS011;30135;47.866;-4.222;2022-08-19T09:39:05;20.47;;;2.90;;
44430;SDS011;30135;47.866;-4.222;2022-08-19T09:41:33;7.32;;;1.05;;
44430;SDS011;30135;47.866;-4.222;2022-08-19T09:44:00;8.40;;;1.58;;
44430;SDS011;30135;47.866;-4.222;2022-08-19T09:46:27;8.35;;;1.10;;
44430;SDS011;30135;47.866;-4.222;2022-08-19T09:49:00;8.27;;;1.40;;
44430;SDS011;30135;47.866;-4.222;2022-08-19T09:54:00;15.15;;;1.20;;
44430;SDS011;30135;47.866;-4.222;2022-08-19T09:56:28;16.88;;;1.77;;
44430;SDS011;30135;47.866;-4.222;2022-08-19T09:58:57;14.38;;;2.45;;
44430;SDS011;30135;47.866;-4.222;2022-08-19T10:01:27;15.82;;;1.85;;
44430;SDS011;30135;47.866;-4.222;2022-08-19T10:03:58;28.65;;;1.80;;
44430;SDS011;30135;47.866;-4.222;2022-08-19T10:06:28;10.25;;;1.20;;
44430;SDS011;30135;47.866;-4.222;2022-08-19T10:08:57;4.97;;;0.93;;
44430;SDS011;30135;47.866;-4.222;2022-08-19T10:11:26;8.23;;;1.23;;
44430;SDS011;30135;47.866;-4.222;2022-08-19T10:13:54;12.48;;;2.13;;
44430;SDS011;30135;47.866;-4.222;2022-08-19T10:16:21;10.35;;;1.33;;
44430;SDS011;30135;47.866;-4.222;2022-08-19T10:18:50;8.07;;;1.15;;
44430;SDS011;30135;47.866;-4.222;2022-08-19T10:21:19;4.53;;;1.10;;
44430;SDS011;30135;47.866;-4.222;2022-08-19T10:23:55;9.07;;;0.90;;
44430;SDS011;30135;47.866;-4.222;2022-08-19T10:26:30;4.68;;;1.08;;
44430;SDS011;30135;47.866;-4.222;2022-08-19T10:29:03;6.20;;;1.27;;
44430;SDS011;30135;47.866;-4.222;2022-08-19T10:31:31;11.00;;;1.15;;
44430;SDS011;30135;47.866;-4.222;2022-08-19T10:34:00;3.15;;;1.00;;
44430;SDS011;30135;47.866;-4.222;2022-08-19T10:36:31;3.55;;;0.82;;
44430;SDS011;30135;47.866;-4.222;2022-08-19T10:39:06;3.65;;;1.20;;
44430;SDS011;30135;47.866;-4.222;2022-08-19T10:41:35;5.90;;;0.93;;
44430;SDS011;30135;47.866;-4.222;2022-08-19T10:44:05;4.05;;;0.90;;
44430;SDS011;30135;47.866;-4.222;2022-08-19T10:46:38;5.68;;;1.17;;
44430;SDS011;30135;47.866;-4.222;2022-08-19T10:49:07;4.88;;;0.82;;
44430;SDS011;30135;47.866;-4.222;2022-08-19T10:51:37;1.98;;;0.85;;
44430;SDS011;30135;47.866;-4.222;2022-08-19T10:54:24;6.38;;;0.90;;
44430;SDS011;30135;47.866;-4.222;2022-08-19T10:57:11;5.07;;;0.88;;
44430;SDS011;30135;47.866;-4.222;2022-08-19T10:59:38;6.53;;;0.52;;
44430;SDS011;30135;47.866;-4.222;2022-08-19T11:02:06;3.38;;;0.70;;
44430;SDS011;30135;47.866;-4.222;2022-08-19T11:04:37;4.63;;;0.90;;
44430;SDS011;30135;47.866;-4.222;2022-08-19T11:07:05;3.55;;;1.23;;
44430;SDS011;30135;47.866;-4.222;2022-08-19T11:09:36;1.70;;;0.60;;
44430;SDS011;30135;47.866;-4.222;2022-08-19T11:12:08;14.10;;;0.90;;
44430;SDS011;30135;47.866;-4.222;2022-08-19T11:14:37;1.77;;;0.38;;
44430;SDS011;30135;47.866;-4.222;2022-08-19T11:17:03;2.58;;;0.63;;
44430;SDS011;30135;47.866;-4.222;2022-08-19T11:19:30;2.50;;;0.47;;
44430;SDS011;30135;47.866;-4.222;2022-08-19T11:21:58;3.75;;;0.70;;
44430;SDS011;30135;47.866;-4.222;2022-08-19T11:24:29;1.77;;;0.80;;
44430;SDS011;30135;47.866;-4.222;2022-08-19T11:27:00;5.40;;;1.17;;
44430;SDS011;30135;47.866;-4.222;2022-08-19T11:29:30;2.33;;;0.45;;
44430;SDS011;30135;47.866;-4.222;2022-08-19T11:31:59;1.25;;;0.45;;
44430;SDS011;30135;47.866;-4.222;2022-08-19T11:34:30;0.98;;;0.20;;
44430;SDS011;30135;47.866;-4.222;2022-08-19T11:36:57;0.55;;;0.20;;
44430;SDS011;30135;47.866;-4.222;2022-08-19T11:39:25;1.50;;;0.20;;
44430;SDS011;30135;47.866;-4.222;2022-08-19T11:41:53;0.25;;;0.20;;
44430;SDS011;30135;47.866;-4.222;2022-08-19T11:44:20;12.43;;;1.05;;
44430;SDS011;30135;47.866;-4.222;2022-08-19T11:46:46;6.18;;;0.40;;
44430;SDS011;30135;47.866;-4.222;2022-08-19T11:49:13;2.10;;;0.47;;
44430;SDS011;30135;47.866;-4.222;2022-08-19T11:51:43;2.95;;;0.30;;
44430;SDS011;30135;47.866;-4.222;2022-08-19T11:54:12;1.17;;;0.20;;
44430;SDS011;30135;47.866;-4.222;2022-08-19T11:56:41;1.08;;;0.43;;
44430;SDS011;30135;47.866;-4.222;2022-08-19T11:59:07;1.40;;;0.30;;
44430;SDS011;30135;47.866;-4.222;2022-08-19T12:01:35;1.70;;;0.63;;
44430;SDS011;30135;47.866;-4.222;2022-08-19T12:04:02;0.75;;;0.25;;
44430;SDS011;30135;47.866;-4.222;2022-08-19T12:06:32;7.60;;;1.50;;
44430;SDS011;30135;47.866;-4.222;2022-08-19T12:09:01;2.08;;;0.20;;
44430;SDS011;30135;47.866;-4.222;2022-08-19T12:11:31;0.70;;;0.22;;
44430;SDS011;30135;47.866;-4.222;2022-08-19T12:13:58;2.53;;;0.50;;
44430;SDS011;30135;47.866;-4.222;2022-08-19T12:16:26;4.82;;;0.70;;
44430;SDS011;30135;47.866;-4.222;2022-08-19T12:18:55;3.35;;;0.43;;
44430;SDS011;30135;47.866;-4.222;2022-08-19T12:21:24;8.80;;;0.90;;
44430;SDS011;30135;47.866;-4.222;2022-08-19T12:23:56;1.25;;;0.73;;
44430;SDS011;30135;47.866;-4.222;2022-08-19T12:26:25;3.75;;;0.50;;
44430;SDS011;30135;47.866;-4.222;2022-08-19T12:28:53;0.75;;;0.32;;
44430;SDS011;30135;47.866;-4.222;2022-08-19T12:31:20;8.00;;;0.73;;
44430;SDS011;30135;47.866;-4.222;2022-08-19T12:33:49;2.25;;;0.93;;
44430;SDS011;30135;47.866;-4.222;2022-08-19T12:36:17;1.58;;;0.60;;
44430;SDS011;30135;47.866;-4.222;2022-08-19T12:38:44;8.55;;;1.42;;
44430;SDS011;30135;47.866;-4.222;2022-08-19T12:41:12;4.68;;;0.32;;
44430;SDS011;30135;47.866;-4.222;2022-08-19T12:43:42;1.77;;;0.63;;
44430;SDS011;30135;47.866;-4.222;2022-08-19T12:46:08;2.72;;;0.82;;
44430;SDS011;30135;47.866;-4.222;2022-08-19T12:48:36;1.50;;;0.45;;
44430;SDS011;30135;47.866;-4.222;2022-08-19T12:51:07;3.13;;;0.50;;
44430;SDS011;30135;47.866;-4.222;2022-08-19T12:53:37;2.70;;;0.70;;
44430;SDS011;30135;47.866;-4.222;2022-08-19T12:56:04;3.00;;;0.30;;
44430;SDS011;30135;47.866;-4.222;2022-08-19T12:58:31;3.70;;;1.08;;
44430;SDS011;30135;47.866;-4.222;2022-08-19T13:01:00;4.95;;;0.77;;
44430;SDS011;30135;47.866;-4.222;2022-08-19T13:03:41;6.53;;;0.82;;
44430;SDS011;30135;47.866;-4.222;2022-08-19T13:06:08;4.55;;;0.73;;
44430;SDS011;30135;47.866;-4.222;2022-08-19T13:08:36;4.18;;;0.68;;
44430;SDS011;30135;47.866;-4.222;2022-08-19T13:11:08;2.20;;;0.57;;
44430;SDS011;30135;47.866;-4.222;2022-08-19T13:13:39;1.80;;;0.30;;
44430;SDS011;30135;47.866;-4.222;2022-08-19T13:16:08;3.13;;;0.50;;
44430;SDS011;30135;47.866;-4.222;2022-08-19T13:18:37;3.45;;;0.65;;
44430;SDS011;30135;47.866;-4.222;2022-08-19T13:21:05;2.83;;;0.85;;
44430;SDS011;30135;47.866;-4.222;2022-08-19T13:23:36;5.85;;;0.63;;
44430;SDS011;30135;47.866;-4.222;2022-08-19T13:26:04;1.00;;;0.43;;
44430;SDS011;30135;47.866;-4.222;2022-08-19T13:28:32;1.77;;;0.32;;
44430;SDS011;30135;47.866;-4.222;2022-08-19T13:31:18;1.23;;;0.47;;
44430;SDS011;30135;47.866;-4.222;2022-08-19T13:34:06;1.58;;;0.50;;
44430;SDS011;30135;47.866;-4.222;2022-08-19T13:36:33;2.08;;;0.40;;
44430;SDS011;30135;47.866;-4.222;2022-08-19T13:39:01;3.67;;;0.50;;
44430;SDS011;30135;47.866;-4.222;2022-08-19T13:41:28;1.42;;;0.30;;
44430;SDS011;30135;47.866;-4.222;2022-08-19T13:43:54;3.85;;;0.30;;
44430;SDS011;30135;47.866;-4.222;2022-08-19T13:46:20;1.17;;;0.38;;
44430;SDS011;30135;47.866;-4.222;2022-08-19T13:48:47;2.42;;;0.40;;
44430;SDS011;30135;47.866;-4.222;2022-08-19T13:51:13;2.78;;;1.00;;
44430;SDS011;30135;47.866;-4.222;2022-08-19T13:53:44;3.05;;;1.58;;
44430;SDS011;30135;47.866;-4.222;2022-08-19T13:56:13;3.80;;;1.02;;
44430;SDS011;30135;47.866;-4.222;2022-08-19T13:58:41;2.63;;;0.50;;
44430;SDS011;30135;47.866;-4.222;2022-08-19T14:01:08;2.78;;;0.77;;
44430;SDS011;30135;47.866;-4.222;2022-08-19T14:03:36;2.25;;;0.50;;
44430;SDS011;30135;47.866;-4.222;2022-08-19T14:06:03;2.53;;;0.40;;
44430;SDS011;30135;47.866;-4.222;2022-08-19T14:08:33;2.78;;;0.50;;
44430;SDS011;30135;47.866;-4.222;2022-08-19T14:11:00;2.08;;;0.40;;
44430;SDS011;30135;47.866;-4.222;2022-08-19T14:13:26;5.55;;;1.10;;
44430;SDS011;30135;47.866;-4.222;2022-08-19T14:15:52;4.45;;;0.47;;
44430;SDS011;30135;47.866;-4.222;2022-08-19T14:18:18;3.10;;;0.77;;
44430;SDS011;30135;47.866;-4.222;2022-08-19T14:20:45;3.63;;;0.63;;
44430;SDS011;30135;47.866;-4.222;2022-08-19T14:23:12;1.27;;;0.55;;
44430;SDS011;30135;47.866;-4.222;2022-08-19T14:25:39;2.20;;;0.45;;
44430;SDS011;30135;47.866;-4.222;2022-08-19T14:28:05;2.53;;;0.60;;
44430;SDS011;30135;47.866;-4.222;2022-08-19T14:30:33;1.98;;;0.60;;
44430;SDS011;30135;47.866;-4.222;2022-08-19T14:33:03;3.38;;;0.38;;
44430;SDS011;30135;47.866;-4.222;2022-08-19T14:35:32;7.68;;;0.85;;
44430;SDS011;30135;47.866;-4.222;2022-08-19T14:38:00;8.73;;;1.35;;
44430;SDS011;30135;47.866;-4.222;2022-08-19T14:40:31;7.97;;;0.55;;
44430;SDS011;30135;47.866;-4.222;2022-08-19T14:42:59;4.32;;;0.88;;
44430;SDS011;30135;47.866;-4.222;2022-08-19T14:45:30;13.77;;;1.38;;
44430;SDS011;30135;47.866;-4.222;2022-08-19T14:48:00;4.57;;;0.50;;
44430;SDS011;30135;47.866;-4.222;2022-08-19T14:50:26;2.97;;;0.57;;
44430;SDS011;30135;47.866;-4.222;2022-08-19T14:53:00;15.90;;;1.40;;
44430;SDS011;30135;47.866;-4.222;2022-08-19T14:55:29;7.70;;;0.82;;
44430;SDS011;30135;47.866;-4.222;2022-08-19T14:57:57;4.63;;;1.63;;
44430;SDS011;30135;47.866;-4.222;2022-08-19T15:00:24;2.72;;;0.50;;
44430;SDS011;30135;47.866;-4.222;2022-08-19T15:02:51;6.80;;;0.65;;
44430;SDS011;30135;47.866;-4.222;2022-08-19T15:05:19;3.80;;;0.88;;
44430;SDS011;30135;47.866;-4.222;2022-08-19T15:07:46;2.42;;;0.85;;